createdAt,value
2022-12-12T00:01:34.494Z,-1.20
2022-12-12T00:04:03.438Z,-1.20
2022-12-12T00:06:30.331Z,-1.20
2022-12-12T00:08:57.080Z,-1.20
2022-12-12T00:11:28.425Z,-1.20
2022-12-12T00:13:55.267Z,-1.10
2022-12-12T00:16:22.685Z,-1.20
2022-12-12T00:18:49.472Z,-0.80
2022-12-12T00:21:21.210Z,-1.10
2022-12-12T00:23:50.450Z,-1.20
2022-12-12T00:26:24.210Z,-0.90
2022-12-12T00:28:53.468Z,-0.90
2022-12-12T00:31:21.299Z,-1.00
2022-12-12T00:33:51.127Z,-1.10
2022-12-12T00:36:21.623Z,-0.40
2022-12-12T00:38:48.508Z,-0.70
2022-12-12T00:41:19.944Z,-1.00
2022-12-12T00:43:46.691Z,-1.20
2022-12-12T00:46:17.869Z,-1.10
2022-12-12T00:48:44.769Z,-0.20
2022-12-12T00:51:13.811Z,-0.10
2022-12-12T00:53:40.746Z,-1.20
2022-12-12T00:56:07.613Z,-1.20
2022-12-12T01:03:34.339Z,-1.20
2022-12-12T01:06:01.089Z,-1.10
2022-12-12T01:08:28.304Z,-1.20
2022-12-12T01:10:57.710Z,-1.10
2022-12-12T01:13:24.670Z,-1.20
2022-12-12T01:18:18.823Z,-1.30
2022-12-12T01:23:12.875Z,-0.30
2022-12-12T01:25:39.841Z,-1.20
2022-12-12T01:28:09.115Z,-1.20
2022-12-12T01:30:35.889Z,-1.20
2022-12-12T01:33:03.851Z,-1.20
2022-12-12T01:35:33.365Z,-1.20
2022-12-12T01:38:00.159Z,-0.90
2022-12-12T01:40:28.737Z,-1.10
2022-12-12T01:46:03.127Z,-1.10
2022-12-12T01:48:49.221Z,-1.00
2022-12-12T01:51:19.146Z,-1.10
2022-12-12T01:53:45.943Z,-1.10
2022-12-12T01:56:14.416Z,-1.10
2022-12-12T01:58:41.999Z,-1.10
2022-12-12T02:01:09.541Z,-1.10
2022-12-12T02:03:38.959Z,-1.20
2022-12-12T02:06:07.156Z,-1.10
2022-12-12T02:08:34.082Z,-1.20
2022-12-12T02:11:00.857Z,-1.10
2022-12-12T02:13:32.147Z,-1.10
2022-12-12T02:16:13.896Z,-1.10
2022-12-12T02:19:15.958Z,-1.10
2022-12-12T02:21:47.878Z,-1.20
2022-12-12T02:24:26.578Z,-1.30
2022-12-12T02:27:24.274Z,-1.60
2022-12-12T02:30:09.773Z,-1.50
2022-12-12T02:33:01.197Z,-1.40
2022-12-12T02:35:36.881Z,-1.40
2022-12-12T02:38:15.879Z,-1.50
2022-12-12T02:41:04.506Z,-1.10
2022-12-12T02:44:02.049Z,-1.40
2022-12-12T02:46:40.983Z,-1.40
2022-12-12T02:49:24.069Z,-1.30
2022-12-12T02:51:51.491Z,-1.30
2022-12-12T02:54:23.369Z,-0.20
2022-12-12T02:56:59.512Z,-1.10
2022-12-12T02:59:40.623Z,-1.20
2022-12-12T03:02:25.562Z,-1.20
2022-12-12T03:05:35.981Z,-1.00
2022-12-12T03:08:21.443Z,-1.10
2022-12-12T03:11:02.315Z,0.10
2022-12-12T03:13:52.205Z,-0.80
2022-12-12T03:16:32.757Z,-0.80
2022-12-12T03:19:35.509Z,-0.80
2022-12-12T03:22:11.199Z,-0.80
2022-12-12T03:24:46.685Z,-0.80
2022-12-12T03:27:19.408Z,-0.60
2022-12-12T03:30:11.637Z,-0.70
2022-12-12T03:32:59.423Z,-1.00
2022-12-12T03:35:38.432Z,-0.90
2022-12-12T03:38:08.726Z,-0.90
2022-12-12T03:40:45.157Z,-0.70
2022-12-12T03:43:15.851Z,-1.00
2022-12-12T03:45:54.312Z,-1.00
2022-12-12T03:48:28.301Z,-0.10
2022-12-12T03:51:12.511Z,-1.10
2022-12-12T03:53:40.979Z,-0.70
2022-12-12T03:56:29.473Z,-1.10
2022-12-12T03:59:15.001Z,-1.20
2022-12-12T04:01:51.374Z,-1.30
2022-12-12T04:04:27.404Z,-2.30
2022-12-12T04:07:02.359Z,-2.20
2022-12-12T04:09:47.664Z,-1.80
2022-12-12T04:12:34.380Z,-1.60
2022-12-12T04:15:18.758Z,-1.70
2022-12-12T04:17:54.576Z,-1.60
2022-12-12T04:20:44.519Z,-1.90
2022-12-12T04:23:54.673Z,-1.70
2022-12-12T04:26:41.985Z,-1.60
2022-12-12T04:29:26.159Z,-1.50
2022-12-12T04:32:07.576Z,-0.80
2022-12-12T04:34:54.050Z,-1.60
2022-12-12T04:37:36.016Z,-1.60
2022-12-12T04:40:04.940Z,-1.70
2022-12-12T04:42:42.974Z,-1.10
2022-12-12T04:45:19.232Z,-2.10
2022-12-12T04:47:53.887Z,-1.50
2022-12-12T04:50:24.841Z,-1.90
2022-12-12T04:52:51.969Z,-1.50
2022-12-12T04:55:21.839Z,-1.40
2022-12-12T04:57:55.970Z,-1.20
2022-12-12T05:00:23.568Z,-1.80
2022-12-12T05:03:17.973Z,1.40
2022-12-12T05:06:05.868Z,-1.50
2022-12-12T05:08:37.570Z,-2.00
2022-12-12T05:11:05.734Z,-1.70
2022-12-12T05:13:42.777Z,-1.20
2022-12-12T05:16:16.250Z,-1.20
2022-12-12T05:18:45.410Z,-1.20
2022-12-12T05:21:12.318Z,-1.20
2022-12-12T05:23:39.086Z,-1.10
2022-12-12T05:26:10.139Z,-1.30
2022-12-12T05:28:39.398Z,-1.20
2022-12-12T05:38:29.819Z,-1.10
2022-12-12T05:40:58.957Z,-1.20
2022-12-12T05:43:27.009Z,-1.30
2022-12-12T05:45:56.274Z,-1.20
2022-12-12T05:48:24.707Z,1.20
2022-12-12T05:50:51.994Z,-1.00
2022-12-12T05:55:52.182Z,-1.00
2022-12-12T05:58:22.020Z,-1.10
2022-12-12T06:00:52.025Z,-1.50
2022-12-12T06:03:19.162Z,-1.00
2022-12-12T06:08:20.980Z,-1.00
2022-12-12T06:10:51.655Z,-1.30
2022-12-12T06:13:18.377Z,-1.00
2022-12-12T06:18:14.446Z,-1.00
2022-12-12T06:25:35.890Z,-0.50
2022-12-12T06:28:02.670Z,-1.00
2022-12-12T06:30:31.877Z,-0.30
2022-12-12T06:33:00.874Z,-1.00
2022-12-12T06:37:54.733Z,-0.70
2022-12-12T06:45:16.763Z,-0.70
2022-12-12T06:47:45.800Z,-0.80
2022-12-12T06:50:12.630Z,-0.80
2022-12-12T06:52:41.928Z,-0.80
2022-12-12T06:55:09.113Z,-0.70
2022-12-12T06:57:38.306Z,-0.70
2022-12-12T07:00:07.908Z,-0.60
2022-12-12T07:14:51.210Z,-0.80
2022-12-12T07:17:20.393Z,-0.60
2022-12-12T07:19:49.659Z,-0.20
2022-12-12T07:24:46.118Z,-0.40
2022-12-12T07:29:48.151Z,-0.30
2022-12-12T07:32:14.872Z,-0.50
2022-12-12T07:37:09.064Z,-0.40
2022-12-12T07:39:37.221Z,-0.40
2022-12-12T07:49:32.970Z,-0.30
2022-12-12T07:51:59.698Z,-0.20
2022-12-12T08:06:44.553Z,0.40
2022-12-12T08:09:15.936Z,-0.10
2022-12-12T08:11:46.662Z,-0.30
2022-12-12T08:14:18.521Z,0.70
2022-12-12T08:16:45.295Z,0.70
2022-12-12T08:21:42.528Z,0.20
2022-12-12T08:24:13.651Z,0.10
2022-12-12T08:29:07.659Z,0.20
2022-12-12T08:31:35.220Z,0.10
2022-12-12T08:34:02.047Z,0.10
2022-12-12T08:36:30.654Z,0.20
2022-12-12T08:39:06.970Z,0.30
2022-12-12T08:41:38.259Z,0.30
2022-12-12T08:44:05.526Z,-0.20
2022-12-12T08:46:34.711Z,0.40
2022-12-12T08:49:03.953Z,0.30
2022-12-12T08:53:57.911Z,0.00
2022-12-12T08:56:24.672Z,0.40
2022-12-12T09:01:22.719Z,0.40
2022-12-12T09:03:49.565Z,0.40
2022-12-12T09:11:13.232Z,0.50
2022-12-12T09:13:44.908Z,0.50
2022-12-12T09:16:11.788Z,0.40
2022-12-12T09:26:09.310Z,0.60
2022-12-12T09:31:12.577Z,0.30
2022-12-12T09:33:44.293Z,0.70
2022-12-12T09:36:13.942Z,0.80
2022-12-12T09:41:13.340Z,0.10
2022-12-12T09:44:00.651Z,1.10
2022-12-12T09:46:31.566Z,0.60
2022-12-12T09:49:12.749Z,0.60
2022-12-12T09:51:39.980Z,0.80
2022-12-12T09:54:06.708Z,0.60
2022-12-12T09:57:24.905Z,0.80
2022-12-12T10:00:12.331Z,0.80
2022-12-12T10:03:11.511Z,0.70
2022-12-12T10:05:44.770Z,0.80
2022-12-12T10:08:18.486Z,0.80
2022-12-12T10:10:46.466Z,0.90
2022-12-12T10:13:30.190Z,0.80
2022-12-12T10:15:59.844Z,1.10
2022-12-12T10:18:39.095Z,0.90
2022-12-12T10:21:11.386Z,0.90
2022-12-12T10:23:44.443Z,1.00
2022-12-12T10:26:17.453Z,1.10
2022-12-12T10:28:47.222Z,1.20
2022-12-12T10:31:28.990Z,1.20
2022-12-12T10:33:58.795Z,1.40
2022-12-12T10:37:07.586Z,1.40
2022-12-12T10:39:53.138Z,1.10
2022-12-12T10:42:42.959Z,1.30
2022-12-12T10:45:27.142Z,1.20
2022-12-12T10:47:53.881Z,1.10
2022-12-12T10:50:43.647Z,1.20
2022-12-12T10:55:55.676Z,0.90
2022-12-12T10:58:26.524Z,1.20
2022-12-12T11:01:05.634Z,1.10
2022-12-12T11:03:35.446Z,1.20
2022-12-12T11:06:07.656Z,1.00
2022-12-12T11:08:37.634Z,1.20
2022-12-12T11:11:07.527Z,1.10
2022-12-12T11:14:03.363Z,1.10
2022-12-12T11:19:16.430Z,1.40
2022-12-12T11:24:14.654Z,1.60
2022-12-12T11:27:05.722Z,1.10
2022-12-12T11:29:43.440Z,1.30
2022-12-12T11:32:14.680Z,1.30
2022-12-12T11:34:45.368Z,1.30
2022-12-12T11:37:16.707Z,1.40
2022-12-12T11:39:44.488Z,1.30
2022-12-12T11:42:13.974Z,1.30
2022-12-12T11:44:41.346Z,1.30
2022-12-12T11:47:16.707Z,1.30
2022-12-12T11:49:47.419Z,1.30
2022-12-12T11:52:30.510Z,1.10
2022-12-12T11:54:59.585Z,1.00
2022-12-12T11:57:56.605Z,1.10
2022-12-12T12:00:31.882Z,1.20
2022-12-12T12:03:22.883Z,1.00
2022-12-12T12:06:09.307Z,0.90
2022-12-12T12:08:48.491Z,1.00
2022-12-12T12:11:27.195Z,1.00
2022-12-12T12:14:31.359Z,0.60
2022-12-12T12:17:30.105Z,1.00
2022-12-12T12:20:12.959Z,0.90
2022-12-12T12:22:55.248Z,0.90
2022-12-12T12:25:56.444Z,0.70
2022-12-12T12:28:32.404Z,1.10
2022-12-12T12:31:17.121Z,1.00
2022-12-12T12:33:46.038Z,1.00
2022-12-12T12:36:28.758Z,1.40
2022-12-12T12:39:19.097Z,1.10
2022-12-12T12:42:10.922Z,1.20
2022-12-12T12:45:00.515Z,1.20
2022-12-12T12:47:37.334Z,1.10
2022-12-12T12:50:16.795Z,1.20
2022-12-12T12:55:19.765Z,1.10
2022-12-12T12:57:48.073Z,1.00
2022-12-12T13:00:17.355Z,1.20
2022-12-12T13:03:02.473Z,1.30
2022-12-12T13:05:36.724Z,1.20
2022-12-12T13:08:12.877Z,1.10
2022-12-12T13:10:41.958Z,0.90
2022-12-12T13:13:27.194Z,0.70
2022-12-12T13:16:35.279Z,1.00
2022-12-12T13:19:09.755Z,1.00
2022-12-12T13:21:49.465Z,1.10
2022-12-12T13:24:24.145Z,0.90
2022-12-12T13:29:48.846Z,1.20
2022-12-12T13:32:53.219Z,1.10
2022-12-12T13:35:25.916Z,1.10
2022-12-12T13:37:55.208Z,1.70
2022-12-12T13:40:31.775Z,0.80
2022-12-12T13:43:10.104Z,0.70
2022-12-12T13:45:43.047Z,1.00
2022-12-12T13:48:10.764Z,0.90
2022-12-12T13:53:07.689Z,0.80
2022-12-12T13:55:35.216Z,0.40
2022-12-12T13:58:08.328Z,1.80
2022-12-12T14:00:38.737Z,0.80
2022-12-12T14:03:28.905Z,0.70
2022-12-12T14:05:55.729Z,0.80
2022-12-12T14:08:27.304Z,0.80
2022-12-12T14:11:06.630Z,0.70
2022-12-12T14:13:45.308Z,0.70
2022-12-12T14:16:22.646Z,0.60
2022-12-12T14:18:54.645Z,0.70
2022-12-12T14:21:22.465Z,0.70
2022-12-12T14:23:50.771Z,0.60
2022-12-12T14:26:30.393Z,0.70
2022-12-12T14:29:18.861Z,0.60
2022-12-12T14:32:13.786Z,0.70
2022-12-12T14:34:54.978Z,0.70
2022-12-12T14:37:59.230Z,0.70
2022-12-12T14:40:28.270Z,0.70
2022-12-12T14:43:19.208Z,0.80
2022-12-12T14:45:51.324Z,1.00
2022-12-12T14:48:30.952Z,0.80
2022-12-12T14:51:12.148Z,1.50
2022-12-12T14:53:38.851Z,1.00
2022-12-12T14:56:17.670Z,1.20
2022-12-12T14:58:56.370Z,0.90
2022-12-12T15:02:02.325Z,1.20
2022-12-12T15:04:34.326Z,0.40
2022-12-12T15:07:04.908Z,1.00
2022-12-12T15:09:34.834Z,1.00
2022-12-12T15:12:10.692Z,1.10
2022-12-12T15:14:47.270Z,1.30
2022-12-12T15:17:15.367Z,1.20
2022-12-12T15:19:42.098Z,1.00
2022-12-12T15:22:34.037Z,0.90
2022-12-12T15:25:12.280Z,2.10
2022-12-12T15:27:50.760Z,1.10
2022-12-12T15:30:37.087Z,2.00
2022-12-12T15:33:08.453Z,1.10
2022-12-12T15:35:37.484Z,1.10
2022-12-12T15:38:11.658Z,1.20
2022-12-12T15:40:39.638Z,1.20
2022-12-12T15:43:14.850Z,1.20
2022-12-12T15:45:58.700Z,1.20
2022-12-12T15:48:28.112Z,1.30
2022-12-12T15:51:05.739Z,1.10
2022-12-12T15:53:39.952Z,1.40
2022-12-12T15:56:32.559Z,1.40
2022-12-12T15:59:15.295Z,1.30
2022-12-12T16:01:44.398Z,1.60
2022-12-12T16:04:11.458Z,1.40
2022-12-12T16:06:47.265Z,1.10
2022-12-12T16:09:20.819Z,1.20
2022-12-12T16:14:27.711Z,1.20
2022-12-12T16:17:05.544Z,1.30
2022-12-12T16:19:47.393Z,1.30
2022-12-12T16:22:20.812Z,1.20
2022-12-12T16:24:52.796Z,1.30
2022-12-12T16:27:21.729Z,1.10
2022-12-12T16:29:48.646Z,1.30
2022-12-12T16:32:17.201Z,1.30
2022-12-12T16:34:44.229Z,2.10
2022-12-12T16:37:15.261Z,1.40
2022-12-12T16:39:44.656Z,1.30
2022-12-12T16:42:13.263Z,1.30
2022-12-12T16:47:17.396Z,1.20
2022-12-12T16:52:18.627Z,1.20
2022-12-12T16:57:22.901Z,1.80
2022-12-12T17:02:23.397Z,1.20
2022-12-12T17:04:50.370Z,1.10
2022-12-12T17:09:46.878Z,1.00
2022-12-12T17:12:15.329Z,1.10
2022-12-12T17:14:42.049Z,1.00
2022-12-12T17:17:08.775Z,0.80
2022-12-12T17:19:37.818Z,1.80
2022-12-12T17:24:32.553Z,1.60
2022-12-12T17:29:26.458Z,0.70
2022-12-12T17:34:25.073Z,0.90
2022-12-12T17:36:54.303Z,0.80
2022-12-12T17:39:23.267Z,0.70
2022-12-12T17:41:50.001Z,0.90
2022-12-12T17:44:17.013Z,0.70
2022-12-12T17:46:43.788Z,0.80
2022-12-12T17:51:37.792Z,0.90
2022-12-12T17:54:04.693Z,1.00
2022-12-12T17:56:32.227Z,0.90
2022-12-12T18:01:27.118Z,0.80
2022-12-12T18:03:54.245Z,0.90
2022-12-12T18:06:22.127Z,0.90
2022-12-12T18:08:49.232Z,1.00
2022-12-12T18:11:20.202Z,1.00
2022-12-12T18:13:49.616Z,0.80
2022-12-12T18:16:16.601Z,1.00
2022-12-12T18:18:43.544Z,0.80
2022-12-12T18:21:23.698Z,1.00
2022-12-12T18:26:26.878Z,0.80
2022-12-12T18:28:57.650Z,0.90
2022-12-12T18:36:29.450Z,1.00
2022-12-12T18:38:56.803Z,1.60
2022-12-12T18:41:23.726Z,1.00
2022-12-12T18:43:50.432Z,1.10
2022-12-12T18:46:18.992Z,1.00
2022-12-12T18:48:48.637Z,1.00
2022-12-12T18:51:17.475Z,1.00
2022-12-12T18:53:44.393Z,0.80
2022-12-12T18:56:17.811Z,1.80
2022-12-12T18:58:47.236Z,1.00
2022-12-12T19:01:16.998Z,0.80
2022-12-12T19:06:15.054Z,1.00
2022-12-12T19:11:09.231Z,0.90
2022-12-12T19:13:36.070Z,0.70
2022-12-12T19:16:13.063Z,0.70
2022-12-12T19:21:08.701Z,0.80
2022-12-12T19:23:36.014Z,0.70
2022-12-12T19:26:10.268Z,0.50
2022-12-12T19:28:37.047Z,0.80
2022-12-12T19:31:13.540Z,0.80
2022-12-12T19:33:40.900Z,0.60
2022-12-12T19:36:12.339Z,0.50
2022-12-12T19:41:10.950Z,0.70
2022-12-12T19:46:15.644Z,1.50
2022-12-12T19:51:17.158Z,0.60
2022-12-12T19:53:54.363Z,0.30
2022-12-12T19:56:29.045Z,0.40
2022-12-12T20:01:28.490Z,0.30
2022-12-12T20:03:57.228Z,0.30
2022-12-12T20:06:28.939Z,0.30
2022-12-12T20:08:58.038Z,0.30
2022-12-12T20:11:26.967Z,0.20
2022-12-12T20:13:55.698Z,0.40
2022-12-12T20:16:24.447Z,0.40
2022-12-12T20:21:43.415Z,0.40
2022-12-12T20:24:07.539Z,0.40
2022-12-12T20:29:01.958Z,1.10
2022-12-12T20:31:30.441Z,0.40
2022-12-12T20:33:57.949Z,0.30
2022-12-12T20:36:29.634Z,0.40
2022-12-12T20:38:56.915Z,0.50
2022-12-12T20:41:25.786Z,0.10
2022-12-12T20:43:58.603Z,0.20
2022-12-12T20:46:33.009Z,0.50
2022-12-12T20:49:03.361Z,0.60
2022-12-12T20:56:49.491Z,0.70
2022-12-12T21:01:43.493Z,0.60
2022-12-12T21:04:10.591Z,0.60
2022-12-12T21:06:43.261Z,0.50
2022-12-12T21:09:19.129Z,0.60
2022-12-12T21:16:42.347Z,0.50
2022-12-12T21:19:12.921Z,0.40
2022-12-12T21:21:40.203Z,1.20
2022-12-12T21:24:09.178Z,0.80
2022-12-12T21:29:05.903Z,1.40
2022-12-12T21:31:34.843Z,0.40
2022-12-12T21:36:29.458Z,-0.10
2022-12-12T21:38:56.870Z,-0.10
2022-12-12T21:41:23.817Z,0.40
2022-12-12T21:43:52.867Z,0.80
2022-12-12T21:46:21.489Z,0.20
2022-12-12T21:49:08.736Z,0.30
2022-12-12T21:54:03.853Z,0.20
2022-12-12T21:56:30.673Z,0.20
2022-12-12T21:58:57.541Z,0.20
2022-12-12T22:01:24.410Z,0.30
2022-12-12T22:03:51.697Z,0.60
2022-12-12T22:06:23.418Z,-0.60
2022-12-12T22:08:50.269Z,0.50
2022-12-12T22:11:23.830Z,0.20
2022-12-12T22:14:06.850Z,0.30
2022-12-12T22:19:05.575Z,0.40
2022-12-12T22:21:33.052Z,0.30
2022-12-12T22:24:02.401Z,0.10
2022-12-12T22:26:34.215Z,0.50
2022-12-12T22:29:02.964Z,0.60
2022-12-12T22:31:31.543Z,0.50
2022-12-12T22:34:02.119Z,0.50
2022-12-12T22:36:30.494Z,0.50
2022-12-12T22:41:28.906Z,0.40
2022-12-12T22:43:58.334Z,0.30
2022-12-12T22:46:26.348Z,0.20
2022-12-12T22:51:25.371Z,0.40
2022-12-12T22:53:55.587Z,0.50
2022-12-12T22:56:22.346Z,0.30
2022-12-12T22:58:53.838Z,0.20
2022-12-12T23:01:21.506Z,0.20
2022-12-12T23:03:51.282Z,0.30
2022-12-12T23:06:21.210Z,0.30
2022-12-12T23:08:52.369Z,0.30
2022-12-12T23:11:22.228Z,0.00
2022-12-12T23:13:53.618Z,0.20
2022-12-12T23:18:48.317Z,0.10
2022-12-12T23:21:17.548Z,-0.10
2022-12-12T23:23:45.030Z,-0.20
2022-12-12T23:26:13.395Z,-0.60
2022-12-12T23:28:40.320Z,-0.10
2022-12-12T23:31:08.766Z,-0.10
2022-12-12T23:36:05.576Z,0.00
2022-12-12T23:38:34.902Z,-0.30
2022-12-12T23:41:05.589Z,0.00
2022-12-12T23:43:35.068Z,0.10
2022-12-12T23:46:02.723Z,-0.10
2022-12-12T23:48:29.707Z,0.00
2022-12-12T23:50:59.200Z,0.20
2022-12-12T23:58:20.420Z,0.00
